Time;durP1;ratioP1;P1;durP2;ratioP2;P2;SDS_P1;SDS_P2;PMS_P1;PMS_P2;Temp;Humidity;BMP_temperature;BMP_pressure;BME280_temperature;BME280_humidity;BME280_pressure;Samples;Min_cycle;Max_cycle;Signal;HPM_P1;HPM_P2
2022/11/17 00:00:29;;;;;;;7.90;6.40;;;;;;;;;;5083169;28;20424;-79
2022/11/17 00:02:57;;;;;;;7.78;6.57;;;;;;;;;;5073445;28;20419;-79
2022/11/17 00:05:25;;;;;;;8.15;7.10;;;;;;;;;;5087966;28;20484;-79
2022/11/17 00:07:52;;;;;;;7.28;5.50;;;;;;;;;;5082677;28;20496;-79
2022/11/17 00:10:18;;;;;;;6.97;6.00;;;;;;;;;;5083068;28;20427;-79
2022/11/17 00:15:29;;;;;;;7.28;5.93;;;;;;;;;;5080542;28;20441;-80
2022/11/17 00:23:22;;;;;;;7.10;6.32;;;;;;;;;;5085423;28;20413;-79
2022/11/17 00:25:48;;;;;;;7.40;6.60;;;;;;;;;;5082793;28;20414;-79
2022/11/17 00:28:15;;;;;;;8.18;6.60;;;;;;;;;;5080299;28;20423;-79
2022/11/17 00:36:14;;;;;;;7.25;6.53;;;;;;;;;;5087314;28;20412;-79
2022/11/17 00:38:40;;;;;;;7.30;6.07;;;;;;;;;;5084559;28;20435;-80
2022/11/17 00:41:07;;;;;;;6.78;5.75;;;;;;;;;;5080938;28;20432;-79
2022/11/17 00:43:35;;;;;;;7.40;6.10;;;;;;;;;;5082868;28;20427;-79
2022/11/17 00:46:02;;;;;;;7.50;6.13;;;;;;;;;;5076476;28;20431;-79
2022/11/17 00:48:28;;;;;;;7.30;6.60;;;;;;;;;;5074996;28;20431;-79
2022/11/17 00:50:55;;;;;;;6.97;6.28;;;;;;;;;;5076351;28;20429;-79
2022/11/17 00:53:24;;;;;;;9.47;6.40;;;;;;;;;;5077448;28;20515;-79
2022/11/17 00:55:51;;;;;;;9.60;7.05;;;;;;;;;;5084635;28;20414;-80
2022/11/17 00:58:17;;;;;;;7.53;5.80;;;;;;;;;;5084620;28;20495;-79
2022/11/17 01:00:44;;;;;;;7.53;5.75;;;;;;;;;;5070549;28;20413;-80
2022/11/17 01:03:10;;;;;;;6.25;5.40;;;;;;;;;;5084266;28;20418;-79
2022/11/17 01:05:38;;;;;;;6.65;5.95;;;;;;;;;;5083969;28;20408;-79
2022/11/17 01:08:12;;;;;;;6.57;5.60;;;;;;;;;;5083769;28;20415;-79
2022/11/17 01:10:40;;;;;;;6.53;5.82;;;;;;;;;;5078870;28;20423;-79
2022/11/17 01:13:06;;;;;;;8.40;5.90;;;;;;;;;;5077680;28;20431;-79
2022/11/17 01:15:33;;;;;;;7.20;6.00;;;;;;;;;;5072398;28;20936;-79
2022/11/17 01:17:59;;;;;;;6.80;5.57;;;;;;;;;;5082486;28;20426;-79
2022/11/17 01:20:25;;;;;;;7.17;5.50;;;;;;;;;;5082418;28;20418;-79
2022/11/17 01:22:53;;;;;;;5.80;5.20;;;;;;;;;;5081356;28;20421;-79
2022/11/17 01:25:21;;;;;;;5.95;4.63;;;;;;;;;;5061288;28;20427;-79
2022/11/17 01:27:49;;;;;;;5.35;4.85;;;;;;;;;;5075378;28;20939;-79
2022/11/17 01:30:16;;;;;;;6.43;5.65;;;;;;;;;;5076425;28;20424;-79
2022/11/17 01:32:42;;;;;;;4.90;4.40;;;;;;;;;;5084078;28;20425;-80
2022/11/17 01:35:09;;;;;;;6.32;4.47;;;;;;;;;;5078996;28;20416;-80
2022/11/17 01:37:35;;;;;;;4.27;3.87;;;;;;;;;;5078477;28;20438;-79
2022/11/17 01:40:02;;;;;;;4.88;3.40;;;;;;;;;;5081768;28;20423;-80
2022/11/17 01:42:28;;;;;;;4.43;3.45;;;;;;;;;;5079807;28;20423;-79
2022/11/17 01:45:01;;;;;;;4.07;3.67;;;;;;;;;;5078989;28;20427;-79
2022/11/17 01:47:29;;;;;;;4.93;3.70;;;;;;;;;;5084075;28;20418;-79
2022/11/17 01:49:57;;;;;;;3.90;3.33;;;;;;;;;;5080940;28;20424;-79
2022/11/17 01:52:25;;;;;;;3.90;3.25;;;;;;;;;;5078676;28;20438;-79
2022/11/17 01:54:53;;;;;;;3.78;3.13;;;;;;;;;;5080062;28;20408;-80
2022/11/17 01:57:22;;;;;;;3.20;2.90;;;;;;;;;;5073790;28;20428;-79
2022/11/17 01:59:51;;;;;;;4.30;3.58;;;;;;;;;;5076471;28;20451;-79
2022/11/17 02:02:22;;;;;;;3.53;3.22;;;;;;;;;;5073563;28;20435;-79
2022/11/17 02:04:53;;;;;;;4.15;3.08;;;;;;;;;;5080978;28;20538;-80
2022/11/17 02:07:22;;;;;;;3.40;3.10;;;;;;;;;;5056914;28;20439;-82
2022/11/17 02:09:49;;;;;;;4.00;3.60;;;;;;;;;;5073391;28;20515;-79
2022/11/17 02:12:18;;;;;;;4.20;3.72;;;;;;;;;;5078136;28;20434;-79
2022/11/17 02:14:44;;;;;;;4.30;3.15;;;;;;;;;;5077307;28;20423;-79
2022/11/17 02:17:11;;;;;;;5.00;4.00;;;;;;;;;;5077144;28;20425;-79
2022/11/17 02:19:40;;;;;;;4.10;3.40;;;;;;;;;;5078818;28;20904;-79
2022/11/17 02:22:17;;;;;;;4.38;3.88;;;;;;;;;;5083331;28;20422;-79
2022/11/17 02:24:59;;;;;;;4.20;3.80;;;;;;;;;;5081991;28;20407;-80
2022/11/17 02:27:47;;;;;;;4.50;4.10;;;;;;;;;;5085102;28;20440;-79
2022/11/17 02:30:16;;;;;;;4.72;4.20;;;;;;;;;;5083536;28;20415;-79
2022/11/17 02:32:50;;;;;;;4.00;3.60;;;;;;;;;;5083588;28;20424;-79
2022/11/17 02:35:20;;;;;;;4.68;3.72;;;;;;;;;;5083604;28;20418;-79
2022/11/17 02:37:51;;;;;;;5.40;4.05;;;;;;;;;;5078992;28;20440;-79
2022/11/17 02:40:20;;;;;;;4.85;4.10;;;;;;;;;;5080481;28;20431;-79
2022/11/17 02:45:36;;;;;;;5.50;3.88;;;;;;;;;;5083634;28;20411;-79
2022/11/17 02:48:05;;;;;;;5.55;4.00;;;;;;;;;;5081408;28;21681;-79
2022/11/17 02:50:33;;;;;;;4.40;3.67;;;;;;;;;;5077413;28;20422;-80
2022/11/17 02:53:00;;;;;;;6.00;3.58;;;;;;;;;;5082374;28;20429;-79
2022/11/17 02:55:32;;;;;;;4.35;3.80;;;;;;;;;;5077658;28;20404;-80
2022/11/17 02:57:58;;;;;;;4.90;4.20;;;;;;;;;;5079350;28;20408;-79
2022/11/17 03:00:27;;;;;;;4.97;4.47;;;;;;;;;;5078212;28;20429;-79
2022/11/17 03:03:02;;;;;;;5.18;4.10;;;;;;;;;;5076305;28;20428;-80
2022/11/17 03:05:38;;;;;;;5.47;4.45;;;;;;;;;;5083260;28;20418;-79
2022/11/17 03:08:13;;;;;;;7.20;4.50;;;;;;;;;;5079290;28;20419;-79
2022/11/17 03:10:48;;;;;;;6.70;5.50;;;;;;;;;;5081003;28;20424;-79
2022/11/17 03:13:18;;;;;;;5.85;4.95;;;;;;;;;;5083213;28;20428;-80
2022/11/17 03:15:48;;;;;;;10.20;6.18;;;;;;;;;;5079247;28;20422;-80
2022/11/17 03:18:18;;;;;;;8.60;6.27;;;;;;;;;;5082081;28;20426;-79
2022/11/17 03:20:49;;;;;;;6.60;5.90;;;;;;;;;;5074126;28;20428;-80
2022/11/17 03:23:18;;;;;;;7.32;5.47;;;;;;;;;;5083910;28;20527;-80
2022/11/17 03:25:45;;;;;;;8.50;6.10;;;;;;;;;;5079334;28;20434;-79
2022/11/17 03:28:12;;;;;;;7.95;6.22;;;;;;;;;;5077073;28;20423;-79
2022/11/17 03:30:41;;;;;;;7.72;6.18;;;;;;;;;;5076630;28;20440;-80
2022/11/17 03:33:10;;;;;;;7.65;6.45;;;;;;;;;;5077878;28;20830;-80
2022/11/17 03:35:39;;;;;;;8.55;6.32;;;;;;;;;;5076293;28;20418;-79
2022/11/17 03:38:07;;;;;;;7.95;5.90;;;;;;;;;;5078724;28;20424;-80
2022/11/17 03:40:34;;;;;;;7.43;6.35;;;;;;;;;;5078030;28;20421;-80
2022/11/17 03:43:02;;;;;;;7.20;6.30;;;;;;;;;;5076590;28;20435;-79
2022/11/17 03:45:29;;;;;;;8.00;6.23;;;;;;;;;;5077819;28;20418;-79
2022/11/17 03:47:59;;;;;;;7.75;6.18;;;;;;;;;;5074636;28;20437;-80
2022/11/17 03:50:30;;;;;;;8.48;6.22;;;;;;;;;;5083014;28;20426;-80
2022/11/17 03:52:58;;;;;;;7.00;6.00;;;;;;;;;;5078185;28;20421;-80
2022/11/17 03:55:28;;;;;;;7.65;6.20;;;;;;;;;;5077551;28;20413;-80
2022/11/17 03:57:58;;;;;;;8.63;6.88;;;;;;;;;;5080508;28;20423;-79
2022/11/17 04:00:25;;;;;;;9.60;6.90;;;;;;;;;;5085587;28;20429;-79
2022/11/17 04:02:54;;;;;;;9.27;7.22;;;;;;;;;;5084231;28;20407;-79
2022/11/17 04:05:21;;;;;;;10.40;7.18;;;;;;;;;;5081248;28;20418;-80
2022/11/17 04:07:48;;;;;;;10.82;7.93;;;;;;;;;;5084563;28;20437;-80
2022/11/17 04:10:18;;;;;;;8.88;7.60;;;;;;;;;;5076813;28;20421;-80
2022/11/17 04:18:13;;;;;;;10.07;8.00;;;;;;;;;;5080075;28;20417;-80
2022/11/17 04:20:40;;;;;;;9.20;7.13;;;;;;;;;;5079851;28;20452;-79
2022/11/17 04:23:07;;;;;;;10.35;7.72;;;;;;;;;;5074559;28;20421;-80
2022/11/17 04:28:38;;;;;;;11.70;7.73;;;;;;;;;;5076392;28;20418;-79
2022/11/17 04:31:09;;;;;;;9.60;7.93;;;;;;;;;;5077966;28;20501;-80
2022/11/17 04:33:36;;;;;;;9.13;7.07;;;;;;;;;;5076347;28;20437;-80
2022/11/17 04:36:03;;;;;;;10.80;8.10;;;;;;;;;;5083971;28;20432;-80
2022/11/17 04:38:29;;;;;;;9.40;6.40;;;;;;;;;;5082025;28;20417;-80
2022/11/17 04:43:46;;;;;;;9.93;7.20;;;;;;;;;;5073378;28;20410;-80
2022/11/17 04:46:13;;;;;;;11.95;8.43;;;;;;;;;;5078709;28;21038;-80
2022/11/17 04:48:39;;;;;;;10.82;7.70;;;;;;;;;;5080192;28;20432;-79
2022/11/17 04:51:06;;;;;;;8.77;7.22;;;;;;;;;;5072231;28;20422;-79
2022/11/17 04:53:33;;;;;;;10.90;7.80;;;;;;;;;;5062861;28;20426;-80
2022/11/17 04:55:59;;;;;;;11.63;7.60;;;;;;;;;;5082605;28;20418;-80
2022/11/17 04:58:28;;;;;;;10.03;7.30;;;;;;;;;;5076364;28;20809;-80
2022/11/17 05:00:54;;;;;;;11.25;7.40;;;;;;;;;;5077901;28;20425;-79
2022/11/17 05:03:21;;;;;;;11.63;8.23;;;;;;;;;;5077521;28;20423;-80
2022/11/17 05:05:48;;;;;;;12.18;8.38;;;;;;;;;;5080086;28;20427;-80
2022/11/17 05:08:15;;;;;;;12.25;8.80;;;;;;;;;;5078662;28;20947;-80
2022/11/17 05:13:25;;;;;;;13.15;9.40;;;;;;;;;;5077317;28;20427;-80
2022/11/17 05:18:40;;;;;;;12.60;9.48;;;;;;;;;;5051386;28;20417;-80
2022/11/17 05:21:07;;;;;;;13.35;9.80;;;;;;;;;;5077286;28;20418;-80
2022/11/17 05:26:18;;;;;;;16.65;10.95;;;;;;;;;;5077413;28;20443;-79
2022/11/17 05:28:44;;;;;;;13.63;10.30;;;;;;;;;;5080239;28;20421;-79
2022/11/17 05:31:12;;;;;;;16.25;10.65;;;;;;;;;;5078470;28;20438;-80
2022/11/17 05:33:38;;;;;;;14.35;9.88;;;;;;;;;;5076840;28;20974;-80
2022/11/17 05:36:05;;;;;;;14.43;10.50;;;;;;;;;;5079112;28;20441;-80
2022/11/17 05:38:32;;;;;;;14.55;11.00;;;;;;;;;;5074337;28;20428;-79
2022/11/17 05:40:58;;;;;;;14.82;10.70;;;;;;;;;;5060848;28;20416;-80
2022/11/17 05:43:25;;;;;;;15.50;11.17;;;;;;;;;;5083273;28;20419;-79
2022/11/17 05:45:51;;;;;;;15.73;11.30;;;;;;;;;;5069970;28;20424;-80
2022/11/17 05:48:19;;;;;;;18.10;12.05;;;;;;;;;;5078696;28;20440;-80
2022/11/17 05:50:45;;;;;;;15.35;11.27;;;;;;;;;;5075069;28;20426;-80
2022/11/17 05:53:12;;;;;;;16.35;11.68;;;;;;;;;;5074030;28;21009;-80
2022/11/17 05:55:38;;;;;;;16.98;10.77;;;;;;;;;;5075573;28;20426;-80
2022/11/17 05:58:08;;;;;;;18.92;11.63;;;;;;;;;;5070286;28;20427;-78
2022/11/17 06:00:36;;;;;;;18.70;12.40;;;;;;;;;;5082822;28;20426;-79
2022/11/17 06:03:07;;;;;;;16.70;11.47;;;;;;;;;;5081840;28;20424;-79
2022/11/17 06:05:36;;;;;;;18.10;12.07;;;;;;;;;;5078819;28;20500;-80
2022/11/17 06:08:02;;;;;;;16.67;12.13;;;;;;;;;;5081419;28;20450;-81
2022/11/17 06:10:29;;;;;;;19.52;12.30;;;;;;;;;;5075637;28;20425;-80
2022/11/17 06:12:55;;;;;;;17.00;11.98;;;;;;;;;;5081996;28;20431;-80
2022/11/17 06:15:23;;;;;;;16.77;12.35;;;;;;;;;;5065806;28;20419;-80
2022/11/17 06:17:51;;;;;;;17.52;12.93;;;;;;;;;;5086612;28;20426;-79
2022/11/17 06:20:19;;;;;;;17.90;13.07;;;;;;;;;;5082736;28;20430;-79
2022/11/17 06:22:47;;;;;;;18.10;12.75;;;;;;;;;;5086407;28;20430;-79
2022/11/17 06:25:14;;;;;;;17.80;13.25;;;;;;;;;;5079605;28;20463;-80
2022/11/17 06:27:41;;;;;;;18.95;13.85;;;;;;;;;;5073182;28;20428;-80
2022/11/17 06:30:08;;;;;;;20.25;14.10;;;;;;;;;;5085192;28;20436;-80
2022/11/17 06:32:36;;;;;;;21.65;14.15;;;;;;;;;;5082001;28;20426;-79
2022/11/17 06:35:04;;;;;;;21.27;14.77;;;;;;;;;;5081210;28;20495;-79
2022/11/17 06:37:30;;;;;;;22.40;13.57;;;;;;;;;;5079256;28;20426;-79
2022/11/17 06:39:58;;;;;;;22.52;14.38;;;;;;;;;;5078686;28;20430;-80
2022/11/17 06:45:05;;;;;;;20.58;13.73;;;;;;;;;;5075868;28;20502;-79
2022/11/17 06:47:31;;;;;;;24.30;15.18;;;;;;;;;;5076977;28;20436;-82
2022/11/17 06:49:57;;;;;;;22.05;15.40;;;;;;;;;;5080082;28;20420;-80
2022/11/17 06:52:24;;;;;;;21.02;14.80;;;;;;;;;;5089783;28;20414;-80
2022/11/17 06:54:50;;;;;;;24.40;15.40;;;;;;;;;;5086501;28;20410;-80
2022/11/17 06:57:18;;;;;;;22.13;15.73;;;;;;;;;;5083787;28;20480;-80
2022/11/17 06:59:47;;;;;;;22.20;15.80;;;;;;;;;;5079545;28;20419;-80
2022/11/17 07:02:13;;;;;;;21.98;15.52;;;;;;;;;;5084813;28;20411;-80
2022/11/17 07:04:39;;;;;;;22.77;16.08;;;;;;;;;;5082820;28;20415;-79
2022/11/17 07:07:05;;;;;;;23.20;16.20;;;;;;;;;;5088245;28;20430;-80
2022/11/17 07:09:32;;;;;;;21.47;15.93;;;;;;;;;;5086601;28;20496;-80
2022/11/17 07:11:58;;;;;;;23.48;16.67;;;;;;;;;;5079490;28;20785;-80
2022/11/17 07:14:26;;;;;;;26.42;17.42;;;;;;;;;;5081128;28;20415;-80
2022/11/17 07:16:53;;;;;;;26.60;17.05;;;;;;;;;;5082904;28;20422;-80
2022/11/17 07:19:19;;;;;;;25.48;16.40;;;;;;;;;;5085009;28;20417;-80
2022/11/17 07:21:46;;;;;;;26.05;17.15;;;;;;;;;;5085872;28;20789;-79
2022/11/17 07:24:12;;;;;;;26.80;18.17;;;;;;;;;;5085825;28;20408;-80
2022/11/17 07:26:39;;;;;;;26.92;18.27;;;;;;;;;;5087473;28;20425;-80
2022/11/17 07:29:05;;;;;;;27.58;18.73;;;;;;;;;;5083293;28;20954;-80
2022/11/17 07:31:34;;;;;;;29.88;18.48;;;;;;;;;;5086051;28;20876;-80
2022/11/17 07:34:01;;;;;;;27.77;18.63;;;;;;;;;;5084339;28;20427;-80
2022/11/17 07:36:27;;;;;;;28.60;17.83;;;;;;;;;;5086402;28;20489;-80
2022/11/17 07:38:54;;;;;;;27.80;19.20;;;;;;;;;;5088207;28;20410;-80
2022/11/17 07:41:20;;;;;;;28.23;19.15;;;;;;;;;;5088743;28;20423;-80
2022/11/17 07:43:47;;;;;;;28.50;19.27;;;;;;;;;;5086079;28;20801;-80
2022/11/17 07:46:14;;;;;;;28.67;18.45;;;;;;;;;;5087037;28;20413;-80
2022/11/17 07:48:43;;;;;;;30.00;19.70;;;;;;;;;;5083289;28;20843;-80
2022/11/17 07:51:10;;;;;;;29.02;19.67;;;;;;;;;;5085515;28;20412;-80
2022/11/17 07:53:36;;;;;;;30.90;19.15;;;;;;;;;;5089750;28;20452;-80
2022/11/17 07:56:03;;;;;;;28.70;19.17;;;;;;;;;;5085518;28;20481;-80
2022/11/17 07:58:30;;;;;;;28.57;18.93;;;;;;;;;;5087275;28;20418;-80
2022/11/17 08:00:57;;;;;;;31.98;19.98;;;;;;;;;;5079582;28;20498;-80
2022/11/17 08:03:24;;;;;;;30.75;19.30;;;;;;;;;;5087808;28;20425;-79
2022/11/17 08:05:52;;;;;;;28.65;18.77;;;;;;;;;;5088362;28;20423;-80
2022/11/17 08:08:19;;;;;;;29.35;18.55;;;;;;;;;;5084209;28;20427;-80
2022/11/17 08:10:45;;;;;;;29.85;20.63;;;;;;;;;;5081708;28;20424;-79
2022/11/17 08:13:14;;;;;;;31.38;19.23;;;;;;;;;;5090375;28;20413;-79
2022/11/17 08:15:41;;;;;;;32.63;19.83;;;;;;;;;;5087644;28;20774;-79
2022/11/17 08:18:08;;;;;;;32.13;20.17;;;;;;;;;;5087471;28;20402;-80
2022/11/17 08:20:35;;;;;;;29.25;18.80;;;;;;;;;;5082986;28;21115;-80
2022/11/17 08:23:02;;;;;;;31.60;20.27;;;;;;;;;;5084998;28;20962;-79
2022/11/17 08:25:29;;;;;;;29.65;18.20;;;;;;;;;;5081110;28;20431;-79
2022/11/17 08:27:56;;;;;;;29.05;19.45;;;;;;;;;;5084876;28;20409;-80
2022/11/17 08:30:23;;;;;;;29.30;18.25;;;;;;;;;;5083794;28;20417;-80
2022/11/17 08:32:51;;;;;;;27.88;19.38;;;;;;;;;;5084050;28;20422;-80
2022/11/17 08:35:20;;;;;;;27.10;18.60;;;;;;;;;;5084396;28;20419;-79
2022/11/17 08:37:47;;;;;;;28.67;19.25;;;;;;;;;;5087633;28;20415;-79
2022/11/17 08:40:16;;;;;;;29.48;18.95;;;;;;;;;;5080186;28;20419;-80
2022/11/17 08:42:43;;;;;;;28.55;18.40;;;;;;;;;;5081690;28;20450;-79
2022/11/17 08:45:10;;;;;;;28.90;19.53;;;;;;;;;;5064785;28;20409;-79
2022/11/17 08:47:38;;;;;;;26.23;17.80;;;;;;;;;;5085750;28;20419;-79
2022/11/17 08:50:06;;;;;;;26.00;17.47;;;;;;;;;;5081998;28;20455;-79
2022/11/17 08:52:32;;;;;;;26.60;18.25;;;;;;;;;;5086165;28;20405;-80
2022/11/17 08:54:59;;;;;;;24.48;16.90;;;;;;;;;;5086136;28;20414;-79
2022/11/17 08:57:28;;;;;;;29.20;18.47;;;;;;;;;;5081586;28;20458;-79
2022/11/17 08:59:55;;;;;;;26.98;17.50;;;;;;;;;;5082213;28;21034;-79
2022/11/17 09:02:21;;;;;;;27.80;17.83;;;;;;;;;;5077700;28;20593;-79
2022/11/17 09:04:49;;;;;;;26.02;17.30;;;;;;;;;;5086807;28;20421;-79
2022/11/17 09:07:15;;;;;;;22.23;15.57;;;;;;;;;;5083107;28;20907;-79
2022/11/17 09:09:42;;;;;;;22.60;15.90;;;;;;;;;;5082567;28;20409;-79
2022/11/17 09:12:09;;;;;;;22.65;15.05;;;;;;;;;;5087376;28;20419;-79
2022/11/17 09:14:36;;;;;;;23.88;15.82;;;;;;;;;;5083237;28;20412;-79
2022/11/17 09:17:03;;;;;;;24.33;16.63;;;;;;;;;;5079263;28;20436;-79
2022/11/17 09:19:30;;;;;;;21.67;15.48;;;;;;;;;;5082849;28;20411;-79
2022/11/17 09:21:56;;;;;;;23.00;14.57;;;;;;;;;;5085213;28;20410;-79
2022/11/17 09:24:25;;;;;;;19.65;13.93;;;;;;;;;;5081238;28;20457;-79
2022/11/17 09:26:53;;;;;;;22.33;14.60;;;;;;;;;;5083542;28;20415;-79
2022/11/17 09:29:20;;;;;;;22.23;14.27;;;;;;;;;;5078739;28;20467;-79
2022/11/17 09:31:48;;;;;;;19.27;13.50;;;;;;;;;;5079718;28;20436;-79
2022/11/17 09:34:14;;;;;;;20.02;14.00;;;;;;;;;;5081578;28;20405;-79
2022/11/17 09:36:41;;;;;;;20.90;14.27;;;;;;;;;;5086294;28;20406;-79
2022/11/17 09:39:07;;;;;;;21.17;14.00;;;;;;;;;;5086387;28;20753;-79
2022/11/17 09:41:39;;;;;;;17.83;12.90;;;;;;;;;;5080825;28;20500;-79
2022/11/17 09:44:10;;;;;;;17.52;13.25;;;;;;;;;;5086461;28;20407;-79
2022/11/17 09:46:43;;;;;;;20.05;13.77;;;;;;;;;;5081552;28;20414;-79
2022/11/17 09:49:16;;;;;;;22.77;13.63;;;;;;;;;;5081193;28;20419;-79
2022/11/17 09:51:44;;;;;;;21.00;13.90;;;;;;;;;;5081892;28;20416;-79
2022/11/17 09:54:14;;;;;;;17.35;13.05;;;;;;;;;;5080278;28;20744;-79
2022/11/17 09:56:40;;;;;;;19.08;13.55;;;;;;;;;;5082276;28;20420;-79
2022/11/17 09:59:11;;;;;;;19.80;14.77;;;;;;;;;;5081503;28;20817;-79
2022/11/17 10:01:38;;;;;;;19.42;13.80;;;;;;;;;;5083192;28;20423;-79
2022/11/17 10:04:09;;;;;;;16.73;12.50;;;;;;;;;;5076419;28;20946;-79
2022/11/17 10:06:37;;;;;;;21.98;14.68;;;;;;;;;;5080419;28;20438;-79
2022/11/17 10:09:06;;;;;;;21.33;13.30;;;;;;;;;;5081235;28;20432;-79
2022/11/17 10:11:34;;;;;;;19.92;13.35;;;;;;;;;;5082666;28;20423;-79
2022/11/17 10:14:11;;;;;;;19.02;13.98;;;;;;;;;;5077727;28;20434;-79
2022/11/17 10:16:38;;;;;;;15.27;11.85;;;;;;;;;;5084413;28;20490;-79
2022/11/17 10:19:11;;;;;;;18.77;12.98;;;;;;;;;;5077998;28;20413;-79
2022/11/17 10:21:38;;;;;;;19.08;13.30;;;;;;;;;;5080543;28;20414;-79
2022/11/17 10:24:06;;;;;;;18.83;12.35;;;;;;;;;;5081980;28;20498;-79
2022/11/17 10:26:43;;;;;;;19.27;13.25;;;;;;;;;;5082208;28;20422;-80
2022/11/17 10:29:11;;;;;;;17.48;11.70;;;;;;;;;;5082723;28;20413;-79
2022/11/17 10:31:42;;;;;;;18.02;12.52;;;;;;;;;;5083879;28;20423;-79
2022/11/17 10:34:09;;;;;;;15.93;11.25;;;;;;;;;;5081559;28;20426;-79
2022/11/17 10:36:35;;;;;;;16.08;11.90;;;;;;;;;;5082734;28;20520;-79
2022/11/17 10:39:04;;;;;;;17.75;12.68;;;;;;;;;;5081174;28;20418;-79
2022/11/17 10:41:35;;;;;;;16.27;11.85;;;;;;;;;;5074003;28;20420;-79
2022/11/17 10:44:03;;;;;;;18.70;11.93;;;;;;;;;;5081216;28;20438;-79
2022/11/17 10:46:31;;;;;;;17.48;11.90;;;;;;;;;;5089166;28;20410;-79
2022/11/17 10:49:00;;;;;;;14.40;11.07;;;;;;;;;;5080945;28;20512;-79
2022/11/17 10:51:27;;;;;;;17.88;12.00;;;;;;;;;;5087985;28;20423;-79
2022/11/17 10:54:01;;;;;;;14.82;11.52;;;;;;;;;;5089020;28;20419;-79
2022/11/17 10:56:31;;;;;;;16.65;11.05;;;;;;;;;;5081479;28;20805;-79
2022/11/17 10:58:59;;;;;;;17.60;11.30;;;;;;;;;;5086327;28;20407;-79
2022/11/17 11:01:31;;;;;;;16.05;11.50;;;;;;;;;;5085416;28;20426;-79
2022/11/17 11:03:59;;;;;;;14.45;10.27;;;;;;;;;;5090632;28;20410;-79
2022/11/17 11:06:26;;;;;;;14.35;11.35;;;;;;;;;;5091927;28;20495;-79
2022/11/17 11:08:55;;;;;;;16.13;11.77;;;;;;;;;;5089631;28;20490;-79
2022/11/17 11:11:28;;;;;;;13.65;9.80;;;;;;;;;;5088696;28;20427;-79
2022/11/17 11:13:57;;;;;;;14.18;10.25;;;;;;;;;;5090078;28;20410;-80
2022/11/17 11:16:25;;;;;;;15.30;11.25;;;;;;;;;;5082784;28;20467;-80
2022/11/17 11:18:52;;;;;;;14.55;10.18;;;;;;;;;;5086959;28;20427;-79
2022/11/17 11:21:24;;;;;;;15.88;10.68;;;;;;;;;;5088311;28;20793;-79
2022/11/17 11:23:52;;;;;;;14.65;10.63;;;;;;;;;;5068166;28;20419;-79
2022/11/17 11:26:32;;;;;;;13.13;9.95;;;;;;;;;;5086768;28;20931;-79
2022/11/17 11:29:11;;;;;;;13.95;9.25;;;;;;;;;;5084576;28;20421;-79
2022/11/17 11:31:46;;;;;;;14.75;10.00;;;;;;;;;;5090438;28;20413;-79
2022/11/17 11:34:18;;;;;;;14.82;9.57;;;;;;;;;;5092997;28;20406;-79
2022/11/17 11:36:49;;;;;;;15.55;9.90;;;;;;;;;;5084986;28;20443;-80
2022/11/17 11:39:24;;;;;;;14.13;9.70;;;;;;;;;;5087070;28;20409;-79
2022/11/17 11:42:00;;;;;;;13.10;9.38;;;;;;;;;;5086086;28;20805;-79
2022/11/17 11:44:39;;;;;;;14.18;9.30;;;;;;;;;;5070400;28;20516;-80
2022/11/17 11:47:09;;;;;;;12.05;8.82;;;;;;;;;;5085470;28;20416;-79
2022/11/17 11:49:38;;;;;;;12.13;9.15;;;;;;;;;;5085966;28;20429;-79
2022/11/17 11:52:07;;;;;;;14.20;9.20;;;;;;;;;;5086766;28;20439;-79
2022/11/17 11:54:36;;;;;;;14.18;9.00;;;;;;;;;;5072967;28;20416;-80
2022/11/17 11:57:02;;;;;;;11.52;8.90;;;;;;;;;;5087713;28;20926;-79
2022/11/17 11:59:36;;;;;;;11.40;8.30;;;;;;;;;;5089309;28;20415;-79
2022/11/17 12:02:13;;;;;;;12.13;8.70;;;;;;;;;;5090484;28;20440;-79
2022/11/17 12:04:43;;;;;;;11.77;7.60;;;;;;;;;;5088952;28;20455;-79
2022/11/17 12:07:16;;;;;;;10.32;7.50;;;;;;;;;;5085645;28;20498;-79
2022/11/17 12:09:46;;;;;;;8.68;7.40;;;;;;;;;;5084466;28;20423;-79
2022/11/17 12:12:15;;;;;;;10.27;7.43;;;;;;;;;;5084524;28;20798;-79
2022/11/17 12:15:02;;;;;;;10.60;7.00;;;;;;;;;;5085282;28;20407;-79
2022/11/17 12:17:32;;;;;;;10.63;6.78;;;;;;;;;;5085636;28;20411;-80
2022/11/17 12:20:01;;;;;;;10.02;6.40;;;;;;;;;;5087211;28;20905;-79
2022/11/17 12:22:49;;;;;;;10.65;7.10;;;;;;;;;;5088597;28;20460;-79
2022/11/17 12:25:17;;;;;;;8.90;6.50;;;;;;;;;;5077290;28;20420;-79
2022/11/17 12:27:44;;;;;;;12.15;6.85;;;;;;;;;;5084306;28;20421;-79
2022/11/17 12:30:30;;;;;;;8.70;7.07;;;;;;;;;;5081908;28;20419;-79
2022/11/17 12:32:58;;;;;;;9.93;6.60;;;;;;;;;;5085663;28;20432;-79
2022/11/17 12:35:25;;;;;;;8.15;6.30;;;;;;;;;;5086378;28;20421;-79
2022/11/17 12:38:06;;;;;;;8.03;5.80;;;;;;;;;;5086987;28;20852;-79
2022/11/17 12:40:43;;;;;;;9.30;6.68;;;;;;;;;;5086180;28;20792;-79
2022/11/17 12:43:19;;;;;;;9.88;6.30;;;;;;;;;;5083843;28;20477;-79
2022/11/17 12:45:54;;;;;;;10.13;6.63;;;;;;;;;;5085625;28;20411;-79
2022/11/17 12:48:23;;;;;;;7.35;6.55;;;;;;;;;;5082098;28;20485;-79
2022/11/17 12:50:54;;;;;;;8.68;5.88;;;;;;;;;;5084818;28;20501;-79
2022/11/17 12:53:39;;;;;;;8.70;6.13;;;;;;;;;;5085840;28;20467;-79
2022/11/17 12:56:18;;;;;;;10.35;6.47;;;;;;;;;;5086174;28;20460;-79
2022/11/17 12:58:52;;;;;;;9.18;6.10;;;;;;;;;;5086367;28;20410;-79
2022/11/17 13:01:23;;;;;;;8.02;6.03;;;;;;;;;;5090317;28;20406;-79
2022/11/17 13:03:54;;;;;;;7.63;5.88;;;;;;;;;;5082576;28;20432;-80
2022/11/17 13:06:20;;;;;;;7.60;5.53;;;;;;;;;;5085519;28;20432;-80
2022/11/17 13:08:57;;;;;;;8.90;6.20;;;;;;;;;;5082853;28;20427;-79
2022/11/17 13:11:23;;;;;;;8.55;6.53;;;;;;;;;;5079461;28;20955;-79
2022/11/17 13:13:50;;;;;;;8.65;6.13;;;;;;;;;;5089114;28;20407;-80
2022/11/17 13:16:19;;;;;;;8.07;5.90;;;;;;;;;;5082707;28;20456;-79
2022/11/17 13:18:49;;;;;;;7.70;5.70;;;;;;;;;;5082790;28;20413;-79
2022/11/17 13:21:28;;;;;;;11.57;5.97;;;;;;;;;;5080379;28;20538;-80
2022/11/17 13:23:56;;;;;;;8.65;6.15;;;;;;;;;;5081875;28;20411;-79
2022/11/17 13:26:24;;;;;;;8.68;6.00;;;;;;;;;;5074820;28;20426;-79
2022/11/17 13:29:06;;;;;;;7.82;6.13;;;;;;;;;;5085753;28;20404;-80
2022/11/17 13:31:33;;;;;;;9.50;6.17;;;;;;;;;;5078660;28;20711;-79
2022/11/17 13:34:03;;;;;;;8.55;6.30;;;;;;;;;;5079834;28;20432;-79
2022/11/17 13:36:30;;;;;;;10.88;6.90;;;;;;;;;;5086679;28;20435;-79
2022/11/17 13:38:59;;;;;;;6.80;5.40;;;;;;;;;;5083071;28;20917;-79
2022/11/17 13:41:26;;;;;;;7.75;5.88;;;;;;;;;;5085104;28;20557;-79
2022/11/17 13:43:53;;;;;;;8.25;5.75;;;;;;;;;;5083086;28;20423;-79
2022/11/17 13:46:20;;;;;;;11.20;6.15;;;;;;;;;;5087434;28;20406;-80
2022/11/17 13:48:47;;;;;;;7.20;5.25;;;;;;;;;;5082393;28;20415;-79
2022/11/17 13:51:28;;;;;;;8.10;5.68;;;;;;;;;;5073972;28;20407;-79
2022/11/17 13:53:57;;;;;;;8.25;5.57;;;;;;;;;;5082604;28;20404;-79
2022/11/17 13:56:29;;;;;;;8.23;6.00;;;;;;;;;;5087286;28;20426;-79
2022/11/17 13:58:56;;;;;;;6.90;5.57;;;;;;;;;;5083961;28;20419;-79
2022/11/17 14:01:24;;;;;;;8.37;5.77;;;;;;;;;;5082456;28;20413;-79
2022/11/17 14:03:50;;;;;;;10.68;6.15;;;;;;;;;;5079457;28;20434;-79
2022/11/17 14:06:17;;;;;;;10.30;6.13;;;;;;;;;;5078455;28;20421;-79
2022/11/17 14:09:01;;;;;;;7.37;6.10;;;;;;;;;;5081908;28;20418;-79
2022/11/17 14:11:28;;;;;;;8.32;6.15;;;;;;;;;;5062365;28;20917;-79
2022/11/17 14:13:57;;;;;;;7.60;5.55;;;;;;;;;;5080591;28;20459;-80
2022/11/17 14:16:28;;;;;;;8.27;6.10;;;;;;;;;;5084382;28;20827;-78
2022/11/17 14:18:56;;;;;;;7.50;5.90;;;;;;;;;;5080247;28;20424;-80
2022/11/17 14:21:22;;;;;;;7.80;5.77;;;;;;;;;;5080332;28;20497;-80
2022/11/17 14:23:48;;;;;;;7.15;6.00;;;;;;;;;;5084221;28;20434;-78
2022/11/17 14:26:20;;;;;;;8.57;6.25;;;;;;;;;;5080198;28;20424;-80
2022/11/17 14:28:49;;;;;;;7.10;5.80;;;;;;;;;;5083593;28;20917;-78
2022/11/17 14:31:16;;;;;;;7.15;5.53;;;;;;;;;;5081830;28;20780;-79
2022/11/17 14:33:42;;;;;;;8.00;6.03;;;;;;;;;;5087492;28;20410;-79
2022/11/17 14:36:10;;;;;;;7.80;6.57;;;;;;;;;;5074436;28;20427;-80
2022/11/17 14:38:37;;;;;;;7.15;5.70;;;;;;;;;;5081309;28;20422;-79
2022/11/17 14:41:03;;;;;;;7.57;6.18;;;;;;;;;;5080794;28;20424;-79
2022/11/17 14:43:30;;;;;;;9.10;6.30;;;;;;;;;;5084588;28;20419;-79
2022/11/17 14:45:58;;;;;;;7.20;6.07;;;;;;;;;;5081557;28;20408;-79
2022/11/17 14:48:25;;;;;;;9.50;5.95;;;;;;;;;;5083080;28;20424;-80
2022/11/17 14:50:55;;;;;;;8.55;6.03;;;;;;;;;;5084986;28;20451;-80
2022/11/17 14:53:22;;;;;;;8.00;6.07;;;;;;;;;;5083509;28;20408;-79
2022/11/17 14:55:48;;;;;;;8.80;5.70;;;;;;;;;;5079434;28;20791;-79
2022/11/17 14:58:14;;;;;;;6.88;5.75;;;;;;;;;;5084342;28;20427;-80
2022/11/17 15:00:41;;;;;;;8.18;5.40;;;;;;;;;;5081369;28;20402;-80
2022/11/17 15:03:08;;;;;;;8.00;6.00;;;;;;;;;;5082087;28;20437;-80
2022/11/17 15:05:35;;;;;;;7.75;5.93;;;;;;;;;;5080997;28;20410;-80
2022/11/17 15:08:02;;;;;;;6.65;5.68;;;;;;;;;;5077643;28;20458;-79
2022/11/17 15:10:28;;;;;;;8.50;5.80;;;;;;;;;;5078697;28;20427;-79
2022/11/17 15:12:54;;;;;;;6.97;5.70;;;;;;;;;;5084837;28;20414;-79
2022/11/17 15:15:21;;;;;;;7.95;5.57;;;;;;;;;;5079841;28;20781;-79
2022/11/17 15:17:47;;;;;;;5.90;5.13;;;;;;;;;;5083348;28;20423;-79